Flight Track Log - Related Links

Times and Time Zones

All times are in EDT time to prevent confusion due to time zone crossing. See the N244A flight status page for this flight to view local times or setup timezone preferences in your user account.

Time Position Orientation Groundspeed Altitude Reporting Facility
EDT Latitude Longitude Course Direction KTS MPH feet Rate Location/Type
Wed 07:59:43 AM 33.5764 -116.0525 77° East 216 249 7,000  Level Los Angeles Center
Wed 08:00:43 AM 33.6372 -116.0083 31° Northeast 253 291 9,300 2,083 Climbing Los Angeles Center
Wed 08:01:44 AM 33.7164 -115.9725 21° North 291 335 11,200 1,934 Climbing Los Angeles Center
Wed 08:02:44 AM 33.8031 -115.9200 27° Northeast 345 397 13,200 2,100 Climbing Los Angeles Center
Wed 08:03:44 AM 33.8517 -115.8158 61° Northeast 359 413 15,400 2,150 Climbing Los Angeles Center
Wed 08:04:44 AM 33.8808 -115.6950 74° East 372 428 17,500 2,165 Climbing Los Angeles Center
Wed 08:05:00 AM 33.7725 -115.3766 77° East  Level Estimated
Wed 08:05:57 AM 33.9092 -115.5489 77° East 374 430 20,200  Level Los Angeles Center
Wed 08:06:57 AM 33.9372 -115.4203 75° East 389 448 21,000 1,050 Climbing Los Angeles Center
Wed 08:07:57 AM 33.9692 -115.2844 74° East 416 479 22,300 1,250 Climbing Los Angeles Center
Wed 08:08:57 AM 33.9978 -115.1472 76° East 423 487 23,500 1,091 Climbing Los Angeles Center
Wed 08:09:58 AM 34.0297 -115.0058 75° East 436 502 24,500 1,289 Climbing Los Angeles Center
Wed 08:10:58 AM 34.0606 -114.8675 75° East 431 496 26,100 1,400 Climbing Los Angeles Center
Wed 08:11:58 AM 34.0925 -114.7269 75° East 433 498 27,300 1,150 Climbing Los Angeles Center
Wed 08:12:58 AM 34.1158 -114.5842 79° East 434 499 28,400 992 Climbing Los Angeles Center
Wed 08:13:59 AM 34.1214 -114.4372 87° East 438 504 29,300 956 Climbing Los Angeles Center
Wed 08:14:51 AM 34.1294 -114.3156 85° East 440 506 30,200 956 Climbing Albuquerque Center
Wed 08:15:52 AM 34.1439 -114.1636 83° East 449 517 31,100 893 Climbing Albuquerque Center
Wed 08:16:52 AM 34.1547 -114.0153 85° East 446 513 32,000 843 Climbing Albuquerque Center
Wed 08:17:53 AM 34.1653 -113.8678 85° East 444 511 32,800 738 Climbing Albuquerque Center
Wed 08:18:54 AM 34.1758 -113.7200 85° East 444 511 33,500 793 Climbing Albuquerque Center
Wed 08:19:54 AM 34.1883 -113.5575 85° East 446 513 34,400 694 Climbing Albuquerque Center
Wed 08:20:55 AM 34.1978 -113.4086 86° East 446 513 34,900 446 Climbing Albuquerque Center
Wed 08:21:55 AM 34.2081 -113.2578 85° East 450 518 35,300 446 Climbing Albuquerque Center
Wed 08:22:56 AM 34.2189 -113.1064 85° East 452 520 35,800 443 Climbing Albuquerque Center
Wed 08:23:57 AM 34.2297 -112.9547 85° East 453 521 36,200 397 Climbing Albuquerque Center
Wed 08:24:57 AM 34.2394 -112.8025 86° East 455 524 36,600 397 Climbing Albuquerque Center
Wed 08:25:58 AM 34.2486 -112.6508 86° East 454 522 37,000 198 Climbing Albuquerque Center
Wed 08:26:58 AM 34.2589 -112.4975 85° East 456 525 37,000  Level Albuquerque Center
Wed 08:27:59 AM 34.2689 -112.3408 86° East 462 532 37,000  Level Albuquerque Center
Wed 08:29:00 AM 34.2769 -112.1836 86° East 466 536 37,000  Level Albuquerque Center
Wed 08:30:00 AM 34.2881 -112.0261 85° East 466 536 37,000  Level Albuquerque Center
Wed 08:31:01 AM 34.2978 -111.8681 86° East 468 539 37,000  Level Albuquerque Center
Wed 08:32:02 AM 34.3058 -111.7108 86° East 465 535 37,000  Level Albuquerque Center
Wed 08:33:02 AM 34.3156 -111.5550 86° East 462 532 37,000  Level Albuquerque Center
Wed 08:34:03 AM 34.3239 -111.4011 86° East 458 527 37,000  Level Albuquerque Center
Wed 08:35:03 AM 34.3325 -111.2472 86° East 458 527 37,000  Level Albuquerque Center
Wed 08:36:04 AM 34.3403 -111.0939 86° East 457 526 37,000  Level Albuquerque Center
Wed 08:37:05 AM 34.3478 -110.9422 87° East 454 522 37,000  Level Albuquerque Center
Wed 08:38:05 AM 34.3550 -110.7881 87° East 456 525 37,000  Level Albuquerque Center
Wed 08:39:06 AM 34.3622 -110.6347 87° East 457 526 37,000  Level Albuquerque Center
Wed 08:40:06 AM 34.3694 -110.4819 87° East 456 525 37,000  Level Albuquerque Center
Wed 08:41:07 AM 34.3778 -110.3097 87° East 458 527 37,000  Level Albuquerque Center
Wed 08:42:08 AM 34.3839 -110.1364 88° East 460 529 37,000  Level Albuquerque Center
Wed 08:43:08 AM 34.3906 -109.9878 87° East 462 532 37,000  Level Albuquerque Center
Wed 08:44:09 AM 34.3978 -109.8400 87° East 461 531 37,000  Level Albuquerque Center
Wed 08:45:10 AM 34.4031 -109.6889 88° East 467 537 37,000  Level Albuquerque Center
Wed 08:46:10 AM 34.4100 -109.5147 87° East 466 536 37,000  Level Albuquerque Center
Wed 08:47:11 AM 34.4147 -109.3669 88° East 462 532 37,000  Level Albuquerque Center
Wed 08:48:12 AM 34.4214 -109.2181 87° East 462 532 37,000  Level Albuquerque Center
Wed 08:49:12 AM 34.4350 -109.0442 85° East 464 534 37,000 -50 Level Albuquerque Center
Wed 08:50:13 AM 34.4558 -108.8956 80° East 467 537 36,900 -689 Descending Albuquerque Center
Wed 08:51:14 AM 34.4750 -108.7444 81° East 471 542 35,600 -1,587 Descending Albuquerque Center
Wed 08:52:14 AM 34.4969 -108.5636 82° East 481 554 33,700 -1,884 Descending Albuquerque Center
Wed 08:53:15 AM 34.5197 -108.4128 80° East 479 551 31,800 -1,721 Descending Albuquerque Center
Wed 08:54:16 AM 34.5467 -108.2614 78° East 475 547 30,200 -2,033 Descending Albuquerque Center
Wed 08:55:16 AM 34.5714 -108.1086 79° East 467 537 27,700 -2,777 Descending Albuquerque Center
Wed 08:56:17 AM 34.5958 -107.9636 78° East 447 514 24,600 -2,361 Descending Albuquerque Center
Wed 08:57:18 AM 34.6186 -107.8258 79° East 427 491 22,900 -1,835 Descending Albuquerque Center
Wed 08:58:18 AM 34.6403 -107.7008 78° East 391 450 20,900 -1,190 Descending Albuquerque Center
Wed 08:59:19 AM 34.6736 -107.5983 68° East 357 411 20,500 -1,328 Descending Albuquerque Center
Wed 09:00:20 AM 34.7400 -107.5214 44° Northeast 337 388 18,200 -1,967 Descending Albuquerque Center
Wed 09:01:21 AM 34.7906 -107.4228 58° Northeast 344 396 16,500 -1,983 Descending Albuquerque Center
Wed 09:02:21 AM 34.8386 -107.3042 64° Northeast 331 381 14,200 -1,488 Descending Albuquerque Center
Wed 09:03:22 AM 34.8764 -107.2150 63° Northeast 308 354 13,500 -1,623 Descending Albuquerque Center
Wed 09:04:23 AM 34.8961 -107.1169 76° East 305 351 10,900 -2,213 Descending Albuquerque Center
Wed 09:05:24 AM 34.8894 -107.0172 95° East 302 348 9,000 -1,426 Descending Albuquerque Center
Wed 09:06:25 AM 34.8844 -106.9233 94° East 291 335 8,000 -488 Descending Albuquerque Center
Wed 09:07:27 AM 34.9042 -106.8328 75° East 245 282 8,000 -141 Level Albuquerque Center
Wed 09:08:33 AM 34.9442 -106.7681 53° Northeast 217 250 7,700 -400 Descending Albuquerque Center
Wed 09:09:27 AM 34.9658 -106.7172 63° Northeast 227 261 7,200 -835 Descending Albuquerque Center
Wed 09:10:28 AM 34.9925 -106.6653 58° Northeast 202 232 6,100 -885 Descending Albuquerque Center
Wed 09:11:29 AM 35.0208 -106.6314 44° Northeast 164 189 5,400 -689 Descending Albuquerque Center

Login

Don't have an account? Register now (free) for customized features, flight alerts, and more!